Stations in: Vaal Major (Blue row indicates station is a dam and capacity is shown in percentage)
Station Place Date/Time Stage (m) Flow/Cap Spill Comment
C1H006 Blesbok at Rietvley 2024-04-15 15:00 0.346 0.72
C1H007 Vaal at Bloukop 2024-04-15 15:00 0.583 7.43
C1H008 Watervals at Elandslaagte 2024-04-15 15:00 0.605 0.62
C1H012 Vaal at Gladdedrift 2024-04-15 15:00 0.636 5.15
C1H015 Klip at Delangesdrift 2024-04-15 15:00 1.669 15.29
C1H019 Outflow from Grootdraai Dam 2024-04-15 15:00 0.297 0.77
C1H044 Leeu Spruit at Welbedacht 2024-04-15 15:00 0.131 0.10
C1R001 Vaal at Vaal Dam 2024-04-15 15:00 19.010 62.12
C1R002 Vaal at Grootdraai Dam 2024-04-15 15:00 26.629 95.82 0.00
C2H004 Suikerbosrant at Uitvlugt 2024-04-15 15:00 1.159 17.05
C2H005 Riet Spruit at Kaalplaats 2024-04-15 15:00 0.442 3.27
C2H007 Vaal at Orkney 2024-04-15 15:00 0.424 39.10
C2H061 Vaal at Klipplaatdrift 2024-04-15 12:00 0.712 94.14
C2H071 Klip River @ Kookfontein 2024-04-15 15:00 0.854 18.05
C2H122 Outflow from Vaal Dam 2024-04-15 15:00 0.564 17.95
C2H140 Vaal at Woodlands 2024-04-15 15:00 0.594 48.77
C2H272 Vaal at Lethabo 2024-04-15 13:00 0.120 3.93
C3R001 Harts at Wentzel Dam
C3R002 Harts at Spitskop Dam 2024-04-15 05:00 5.447 64.95 0.00
C3R006 Harts at Taung Dam 2024-04-15 05:00 24.611 90.00 0.00
C4H004 Vet at Nooitgedacht 2024-04-14 20:00 1.568 26.86
C4H015 Vet at Vaalkoppies 2024-04-15 12:00 2.975 6.90
C4H016 Sand at Bloudrift 2024-04-15 13:00 0.279 1.86
C4R001 Sand at Allemanskraal Dam 2024-04-15 13:00 10.549 69.05 0.00
C4R002 Groot Vet at Erfenis Dam 2024-04-15 13:00 30.534 100.71 2.89
C6H002 Vals at Bothaville 2024-04-15 13:00 0.407 2.42
C6H006 Vals at Tweefontein 2024-04-15 09:00 1.309 0.00
C6H007 Vals at Kroonstadbrug 2024-04-15 13:00 2.658 0.00
C6H009 Vals at Lindley 2024-04-15 05:00 0.017
C7H019 Renoster at Verheugd 2024-04-15 13:00 0.042
C7R001 Renoster at Koppies Dam 2024-04-15 13:00 5.400 83.08 0.00
C8H001 Wilge at Frankfort 2024-04-15 13:00 0.635 41.49
C8H003 Cornelis at Warden 2024-04-15 12:00 0.040 0.23
C8H005 Elands at Elands River Drift 2024-04-15 13:00 0.197 2.33
C8H020 Liebenbergsvlei at Roodekraal 2024-04-15 05:00 0.676 30.89
C8H023 Meul River at The Willows 2024-04-15 09:00 0.162 4.30
C8H026 Liebenbergsvlei at Frederiksdal 2024-04-15 13:00 0.751 23.86
C8H027 Wilge at Ballingtomp 2024-04-15 12:00 1.120 29.60
C8H028 Wilge at Bavaria 2024-04-15 12:00 0.513
C8H036 Ash at outlet from Katse Dam 2024-04-15 09:00 1.116 23.64
C8H037 Liebenbergsvlei at Reward 2024-04-15 12:00 0.539 27.12
C8R003 Nuwejaarspr at Sterkfontein Dam 2024-04-15 12:00 82.006 100.02
C8R004 Liebenbergsvlei at Saulspoort Dam 2024-04-15 13:00 10.356 97.87 0.00
C9H010 Vaal River @ Gamagara 2024-04-15 05:00 1.826 2.58
C9H021 Outflow from Bloemhof Dam 2024-04-15 05:00 0.299 7.59
C9H024 Vaal at Schmidsdrift 2024-04-15 05:00 0.341 12.53
C9R001 Vaal at Vaalharts Weir 2024-04-14 05:00 7.045 89.39
C9R002 Vaal at Bloemhof Dam 2024-04-15 05:00 17.320 87.95
C9R003 Vaal at Douglas Weir 2024-04-15 05:00 3.061 110.41 19.43

Use your mouse cursor zoom and pan the images below.